sensor_id;sensor_type;location;lat;lon;timestamp;pressure;altitude;pressure_sealevel;temperature;humidity
71384;BME280;67558;52.166;5.004;2023-03-05T00:01:51;102386.91;;;7.45;60.58
71384;BME280;67558;52.166;5.004;2023-03-05T00:04:16;102386.09;;;7.45;61.16
71384;BME280;67558;52.166;5.004;2023-03-05T00:06:41;102392.44;;;7.44;60.64
71384;BME280;67558;52.166;5.004;2023-03-05T00:09:07;102384.47;;;7.44;60.74
71384;BME280;67558;52.166;5.004;2023-03-05T00:11:32;102377.28;;;7.37;60.82
71384;BME280;67558;52.166;5.004;2023-03-05T00:14:00;102378.50;;;7.42;60.89
71384;BME280;67558;52.166;5.004;2023-03-05T00:16:27;102369.91;;;7.39;61.28
71384;BME280;67558;52.166;5.004;2023-03-05T00:18:54;102368.69;;;7.35;61.17
71384;BME280;67558;52.166;5.004;2023-03-05T00:21:26;102377.09;;;7.32;61.00
71384;BME280;67558;52.166;5.004;2023-03-05T00:23:52;102377.91;;;7.33;61.40
71384;BME280;67558;52.166;5.004;2023-03-05T00:26:20;102357.66;;;7.25;61.39
71384;BME280;67558;52.166;5.004;2023-03-05T00:28:45;102371.16;;;7.30;61.60
71384;BME280;67558;52.166;5.004;2023-03-05T00:31:16;102373.41;;;7.27;61.65
71384;BME280;67558;52.166;5.004;2023-03-05T00:33:42;102362.34;;;7.23;61.41
71384;BME280;67558;52.166;5.004;2023-03-05T00:36:08;102357.66;;;7.25;62.10
71384;BME280;67558;52.166;5.004;2023-03-05T00:38:34;102356.59;;;7.26;61.89
71384;BME280;67558;52.166;5.004;2023-03-05T00:41:00;102350.88;;;7.23;61.86
71384;BME280;67558;52.166;5.004;2023-03-05T00:43:26;102356.00;;;7.24;62.12
71384;BME280;67558;52.166;5.004;2023-03-05T00:45:51;102344.72;;;7.22;62.02
71384;BME280;67558;52.166;5.004;2023-03-05T00:48:17;102343.13;;;7.14;62.15
71384;BME280;67558;52.166;5.004;2023-03-05T00:50:42;102292.13;;;6.78;62.79
71384;BME280;67558;52.166;5.004;2023-03-05T00:53:07;102340.44;;;7.08;62.76
71384;BME280;67558;52.166;5.004;2023-03-05T00:55:33;102338.19;;;7.05;63.20
71384;BME280;67558;52.166;5.004;2023-03-05T00:58:00;102344.13;;;7.07;62.78
71384;BME280;67558;52.166;5.004;2023-03-05T01:00:25;102339.84;;;7.06;62.74
71384;BME280;67558;52.166;5.004;2023-03-05T01:02:51;102335.31;;;7.06;63.24
71384;BME280;67558;52.166;5.004;2023-03-05T01:05:16;102339.00;;;7.05;63.10
71384;BME280;67558;52.166;5.004;2023-03-05T01:07:42;102345.97;;;7.06;62.89
71384;BME280;67558;52.166;5.004;2023-03-05T01:10:08;102341.88;;;7.04;62.90
71384;BME280;67558;52.166;5.004;2023-03-05T01:12:34;102332.25;;;7.03;63.18
71384;BME280;67558;52.166;5.004;2023-03-05T01:14:59;102330.41;;;7.03;62.93
71384;BME280;67558;52.166;5.004;2023-03-05T01:17:24;102307.06;;;6.92;63.31
71384;BME280;67558;52.166;5.004;2023-03-05T01:19:50;102316.09;;;6.97;63.27
71384;BME280;67558;52.166;5.004;2023-03-05T01:22:15;102305.03;;;6.94;63.55
71384;BME280;67558;52.166;5.004;2023-03-05T01:24:40;102316.47;;;6.94;63.37
71384;BME280;67558;52.166;5.004;2023-03-05T01:27:06;102303.78;;;6.90;62.95
71384;BME280;67558;52.166;5.004;2023-03-05T01:29:31;102306.06;;;6.86;63.22
71384;BME280;67558;52.166;5.004;2023-03-05T01:31:56;102299.88;;;6.79;62.80
71384;BME280;67558;52.166;5.004;2023-03-05T01:34:22;102305.22;;;6.72;63.02
71384;BME280;67558;52.166;5.004;2023-03-05T01:36:47;102300.09;;;6.71;63.53
71384;BME280;67558;52.166;5.004;2023-03-05T01:39:15;102300.50;;;6.68;63.64
71384;BME280;67558;52.166;5.004;2023-03-05T01:41:40;102292.72;;;6.60;63.39
71384;BME280;67558;52.166;5.004;2023-03-05T01:44:06;102287.38;;;6.60;63.60
71384;BME280;67558;52.166;5.004;2023-03-05T01:46:36;102274.28;;;6.51;63.97
71384;BME280;67558;52.166;5.004;2023-03-05T01:49:05;102280.84;;;6.55;63.63
71384;BME280;67558;52.166;5.004;2023-03-05T01:51:43;102284.72;;;6.60;64.06
71384;BME280;67558;52.166;5.004;2023-03-05T01:54:13;102285.34;;;6.62;63.55
71384;BME280;67558;52.166;5.004;2023-03-05T01:56:40;102274.72;;;6.62;63.96
71384;BME280;67558;52.166;5.004;2023-03-05T01:59:06;102272.47;;;6.65;63.93
71384;BME280;67558;52.166;5.004;2023-03-05T02:01:43;102273.09;;;6.67;63.96
71384;BME280;67558;52.166;5.004;2023-03-05T02:04:14;102263.47;;;6.66;63.57
71384;BME280;67558;52.166;5.004;2023-03-05T02:06:41;102264.91;;;6.69;63.75
71384;BME280;67558;52.166;5.004;2023-03-05T02:09:07;102259.00;;;6.67;63.67
71384;BME280;67558;52.166;5.004;2023-03-05T02:11:33;102251.00;;;6.67;63.37
71384;BME280;67558;52.166;5.004;2023-03-05T02:13:59;102256.34;;;6.73;63.69
71384;BME280;67558;52.166;5.004;2023-03-05T02:16:25;102248.34;;;6.73;63.13
71384;BME280;67558;52.166;5.004;2023-03-05T02:18:50;102244.84;;;6.73;63.51
71384;BME280;67558;52.166;5.004;2023-03-05T02:21:26;102238.91;;;6.71;63.19
71384;BME280;67558;52.166;5.004;2023-03-05T02:23:52;102239.53;;;6.73;63.52
71384;BME280;67558;52.166;5.004;2023-03-05T02:26:18;102235.25;;;6.72;63.10
71384;BME280;67558;52.166;5.004;2023-03-05T02:28:46;102230.75;;;6.66;63.72
71384;BME280;67558;52.166;5.004;2023-03-05T02:31:16;102216.41;;;6.60;63.39
71384;BME280;67558;52.166;5.004;2023-03-05T02:33:42;102227.47;;;6.70;63.34
71384;BME280;67558;52.166;5.004;2023-03-05T02:36:08;102218.69;;;6.70;63.27
71384;BME280;67558;52.166;5.004;2023-03-05T02:38:34;102202.91;;;6.62;63.47
71384;BME280;67558;52.166;5.004;2023-03-05T02:41:00;102207.22;;;6.63;63.42
71384;BME280;67558;52.166;5.004;2023-03-05T02:43:25;102208.25;;;6.62;63.42
71384;BME280;67558;52.166;5.004;2023-03-05T02:45:51;102206.63;;;6.61;63.65
71384;BME280;67558;52.166;5.004;2023-03-05T02:48:16;102196.56;;;6.49;64.14
71384;BME280;67558;52.166;5.004;2023-03-05T02:50:42;102201.31;;;6.61;63.85
71384;BME280;67558;52.166;5.004;2023-03-05T02:53:08;102197.59;;;6.62;63.75
71384;BME280;67558;52.166;5.004;2023-03-05T02:55:34;102198.66;;;6.61;63.66
71384;BME280;67558;52.166;5.004;2023-03-05T02:57:59;102197.00;;;6.60;63.86
71384;BME280;67558;52.166;5.004;2023-03-05T03:00:25;102197.81;;;6.60;63.97
71384;BME280;67558;52.166;5.004;2023-03-05T03:02:51;102177.75;;;6.57;63.72
71384;BME280;67558;52.166;5.004;2023-03-05T03:05:16;102179.00;;;6.55;63.97
71384;BME280;67558;52.166;5.004;2023-03-05T03:07:41;102167.94;;;6.51;64.07
71384;BME280;67558;52.166;5.004;2023-03-05T03:10:07;102151.59;;;6.41;64.10
71384;BME280;67558;52.166;5.004;2023-03-05T03:12:40;102158.13;;;6.45;64.03
71384;BME280;67558;52.166;5.004;2023-03-05T03:15:09;102164.28;;;6.46;63.89
71384;BME280;67558;52.166;5.004;2023-03-05T03:17:35;102158.13;;;6.39;63.82
71384;BME280;67558;52.166;5.004;2023-03-05T03:20:03;102152.19;;;6.36;63.68
71384;BME280;67558;52.166;5.004;2023-03-05T03:22:31;102144.84;;;6.32;63.50
71384;BME280;67558;52.166;5.004;2023-03-05T03:24:56;102149.34;;;6.31;63.74
71384;BME280;67558;52.166;5.004;2023-03-05T03:27:22;102152.63;;;6.27;64.04
71384;BME280;67558;52.166;5.004;2023-03-05T03:29:48;102145.63;;;6.19;64.01
71384;BME280;67558;52.166;5.004;2023-03-05T03:32:13;102146.06;;;6.09;64.19
71384;BME280;67558;52.166;5.004;2023-03-05T03:34:38;102148.09;;;6.07;64.41
71384;BME280;67558;52.166;5.004;2023-03-05T03:37:04;102145.63;;;5.99;64.47
71384;BME280;67558;52.166;5.004;2023-03-05T03:39:29;102137.41;;;5.94;64.62
71384;BME280;67558;52.166;5.004;2023-03-05T03:41:55;102138.44;;;5.93;64.98
71384;BME280;67558;52.166;5.004;2023-03-05T03:44:21;102112.28;;;5.83;64.95
71384;BME280;67558;52.166;5.004;2023-03-05T03:46:48;102130.28;;;5.94;64.86
71384;BME280;67558;52.166;5.004;2023-03-05T03:49:17;102110.63;;;5.89;65.15
71384;BME280;67558;52.166;5.004;2023-03-05T03:51:44;102124.38;;;5.99;65.20
71384;BME280;67558;52.166;5.004;2023-03-05T03:54:09;102131.94;;;6.02;65.29
71384;BME280;67558;52.166;5.004;2023-03-05T03:56:35;102124.38;;;6.06;64.91
71384;BME280;67558;52.166;5.004;2023-03-05T03:59:00;102071.22;;;5.86;65.01
71384;BME280;67558;52.166;5.004;2023-03-05T04:01:25;102122.34;;;6.21;65.06
71384;BME280;67558;52.166;5.004;2023-03-05T04:03:51;102123.19;;;6.22;64.97
71384;BME280;67558;52.166;5.004;2023-03-05T04:06:16;102121.34;;;6.22;64.85
71384;BME280;67558;52.166;5.004;2023-03-05T04:08:41;102110.47;;;6.24;65.00
71384;BME280;67558;52.166;5.004;2023-03-05T04:11:07;102111.09;;;6.19;64.90
71384;BME280;67558;52.166;5.004;2023-03-05T04:13:32;102105.78;;;6.26;65.14
71384;BME280;67558;52.166;5.004;2023-03-05T04:15:58;102099.47;;;6.27;65.05
71384;BME280;67558;52.166;5.004;2023-03-05T04:18:23;102109.06;;;6.28;64.64
71384;BME280;67558;52.166;5.004;2023-03-05T04:20:49;102093.94;;;6.15;64.88
71384;BME280;67558;52.166;5.004;2023-03-05T04:23:14;102104.16;;;6.25;64.60
71384;BME280;67558;52.166;5.004;2023-03-05T04:25:40;102098.44;;;6.14;64.83
71384;BME280;67558;52.166;5.004;2023-03-05T04:28:05;102101.69;;;6.23;64.90
71384;BME280;67558;52.166;5.004;2023-03-05T04:30:30;102104.59;;;6.22;65.07
71384;BME280;67558;52.166;5.004;2023-03-05T04:32:56;102073.09;;;6.05;64.81
71384;BME280;67558;52.166;5.004;2023-03-05T04:35:22;102092.72;;;6.18;64.94
71384;BME280;67558;52.166;5.004;2023-03-05T04:37:47;102094.34;;;6.19;64.71
71384;BME280;67558;52.166;5.004;2023-03-05T04:40:13;102089.03;;;6.19;65.03
71384;BME280;67558;52.166;5.004;2023-03-05T04:42:38;102083.09;;;6.17;64.88
71384;BME280;67558;52.166;5.004;2023-03-05T04:45:04;102089.47;;;6.15;65.10
71384;BME280;67558;52.166;5.004;2023-03-05T04:47:31;102080.25;;;6.18;64.88
71384;BME280;67558;52.166;5.004;2023-03-05T04:49:56;102085.75;;;6.17;65.07
71384;BME280;67558;52.166;5.004;2023-03-05T04:52:21;102084.75;;;6.18;65.00
71384;BME280;67558;52.166;5.004;2023-03-05T04:54:47;102077.97;;;6.15;64.94
71384;BME280;67558;52.166;5.004;2023-03-05T04:57:12;102070.25;;;6.13;65.16
71384;BME280;67558;52.166;5.004;2023-03-05T04:59:37;102070.25;;;6.13;65.04
71384;BME280;67558;52.166;5.004;2023-03-05T05:02:03;102073.91;;;6.19;65.34
71384;BME280;67558;52.166;5.004;2023-03-05T05:04:28;102068.59;;;6.19;65.53
71384;BME280;67558;52.166;5.004;2023-03-05T05:06:55;102068.19;;;6.22;65.36
71384;BME280;67558;52.166;5.004;2023-03-05T05:09:20;102057.75;;;6.21;65.66
71384;BME280;67558;52.166;5.004;2023-03-05T05:11:46;102050.00;;;6.19;65.44
71384;BME280;67558;52.166;5.004;2023-03-05T05:14:11;102021.22;;;5.96;65.48
71384;BME280;67558;52.166;5.004;2023-03-05T05:16:36;102053.88;;;6.23;65.60
71384;BME280;67558;52.166;5.004;2023-03-05T05:19:02;102041.22;;;6.19;65.35
71384;BME280;67558;52.166;5.004;2023-03-05T05:21:27;102051.84;;;6.19;65.65
71384;BME280;67558;52.166;5.004;2023-03-05T05:23:53;102041.00;;;6.20;65.69
71384;BME280;67558;52.166;5.004;2023-03-05T05:26:18;102040.41;;;6.18;65.32
71384;BME280;67558;52.166;5.004;2023-03-05T05:28:44;102040.41;;;6.18;65.58
71384;BME280;67558;52.166;5.004;2023-03-05T05:31:11;102033.44;;;6.17;65.45
71384;BME280;67558;52.166;5.004;2023-03-05T05:33:37;102034.28;;;6.18;65.52
71384;BME280;67558;52.166;5.004;2023-03-05T05:36:04;102034.47;;;6.16;66.00
71384;BME280;67558;52.166;5.004;2023-03-05T05:38:30;102037.94;;;6.17;65.97
71384;BME280;67558;52.166;5.004;2023-03-05T05:41:04;102052.25;;;6.15;65.85
71384;BME280;67558;52.166;5.004;2023-03-05T05:43:30;102041.63;;;6.15;65.71
71384;BME280;67558;52.166;5.004;2023-03-05T05:46:05;102013.00;;;6.04;65.93
71384;BME280;67558;52.166;5.004;2023-03-05T05:48:32;102033.44;;;6.17;65.80
71384;BME280;67558;52.166;5.004;2023-03-05T05:50:58;102022.19;;;6.15;65.99
71384;BME280;67558;52.166;5.004;2023-03-05T05:53:24;102025.47;;;6.17;65.76
71384;BME280;67558;52.166;5.004;2023-03-05T05:55:49;102014.44;;;6.13;66.10
71384;BME280;67558;52.166;5.004;2023-03-05T05:58:15;101999.09;;;6.02;65.79
71384;BME280;67558;52.166;5.004;2023-03-05T06:00:40;102000.75;;;6.03;66.07
71384;BME280;67558;52.166;5.004;2023-03-05T06:03:06;102015.66;;;6.04;66.10
71384;BME280;67558;52.166;5.004;2023-03-05T06:05:32;101998.91;;;5.90;66.22
71384;BME280;67558;52.166;5.004;2023-03-05T06:07:57;102017.72;;;5.95;66.16
71384;BME280;67558;52.166;5.004;2023-03-05T06:10:23;102017.72;;;5.95;65.79
71384;BME280;67558;52.166;5.004;2023-03-05T06:12:48;102012.59;;;5.94;66.03
71384;BME280;67558;52.166;5.004;2023-03-05T06:15:13;102009.72;;;5.89;65.92
71384;BME280;67558;52.166;5.004;2023-03-05T06:17:39;102009.91;;;5.81;66.22
71384;BME280;67558;52.166;5.004;2023-03-05T06:20:05;102005.63;;;5.80;66.23
71384;BME280;67558;52.166;5.004;2023-03-05T06:22:34;101983.16;;;5.62;66.06
71384;BME280;67558;52.166;5.004;2023-03-05T06:25:00;102009.09;;;5.73;66.57
71384;BME280;67558;52.166;5.004;2023-03-05T06:27:25;102014.81;;;5.70;66.52
71384;BME280;67558;52.166;5.004;2023-03-05T06:29:52;102003.78;;;5.60;66.45
71384;BME280;67558;52.166;5.004;2023-03-05T06:32:18;102013.78;;;5.65;66.39
71384;BME280;67558;52.166;5.004;2023-03-05T06:34:43;102015.81;;;5.63;66.54
71384;BME280;67558;52.166;5.004;2023-03-05T06:37:09;102021.94;;;5.63;66.65
71384;BME280;67558;52.166;5.004;2023-03-05T06:39:34;102020.31;;;5.62;66.53
71384;BME280;67558;52.166;5.004;2023-03-05T06:41:59;102020.94;;;5.64;66.60
71384;BME280;67558;52.166;5.004;2023-03-05T06:44:25;102017.25;;;5.65;66.74
71384;BME280;67558;52.166;5.004;2023-03-05T06:46:50;102017.88;;;5.67;66.67
71384;BME280;67558;52.166;5.004;2023-03-05T06:49:16;102012.97;;;5.71;66.85
71384;BME280;67558;52.166;5.004;2023-03-05T06:51:41;102014.59;;;5.72;66.49
71384;BME280;67558;52.166;5.004;2023-03-05T06:54:10;102016.06;;;5.74;66.71
71384;BME280;67558;52.166;5.004;2023-03-05T06:56:37;102012.19;;;5.77;67.15
71384;BME280;67558;52.166;5.004;2023-03-05T06:59:04;102020.94;;;5.84;67.15
71384;BME280;67558;52.166;5.004;2023-03-05T07:01:29;102017.06;;;5.93;66.73
71384;BME280;67558;52.166;5.004;2023-03-05T07:03:55;101995.81;;;5.93;66.95
71384;BME280;67558;52.166;5.004;2023-03-05T07:06:23;101996.84;;;5.92;66.56
71384;BME280;67558;52.166;5.004;2023-03-05T07:08:49;102013.00;;;6.04;66.96
71384;BME280;67558;52.166;5.004;2023-03-05T07:11:18;102005.66;;;6.06;66.93
71384;BME280;67558;52.166;5.004;2023-03-05T07:13:44;102003.59;;;6.08;66.87
71384;BME280;67558;52.166;5.004;2023-03-05T07:16:17;101996.84;;;6.12;66.82
71384;BME280;67558;52.166;5.004;2023-03-05T07:18:43;101993.41;;;6.12;66.87
71384;BME280;67558;52.166;5.004;2023-03-05T07:21:10;102015.88;;;6.23;66.88
71384;BME280;67558;52.166;5.004;2023-03-05T07:23:39;102016.91;;;6.22;66.81
71384;BME280;67558;52.166;5.004;2023-03-05T07:26:05;102022.41;;;6.27;66.91
71384;BME280;67558;52.166;5.004;2023-03-05T07:28:31;102016.66;;;6.23;67.07
71384;BME280;67558;52.166;5.004;2023-03-05T07:30:59;102002.38;;;6.24;67.37
71384;BME280;67558;52.166;5.004;2023-03-05T07:33:25;102008.31;;;6.26;67.08
71384;BME280;67558;52.166;5.004;2023-03-05T07:35:51;102005.03;;;6.31;67.22
71384;BME280;67558;52.166;5.004;2023-03-05T07:38:16;102000.72;;;6.30;67.56
71384;BME280;67558;52.166;5.004;2023-03-05T07:40:42;102002.94;;;6.46;66.77
71384;BME280;67558;52.166;5.004;2023-03-05T07:43:07;101997.81;;;6.51;67.24
71384;BME280;67558;52.166;5.004;2023-03-05T07:45:33;101999.03;;;6.55;66.90
71384;BME280;67558;52.166;5.004;2023-03-05T07:47:58;101992.25;;;6.60;67.31
71384;BME280;67558;52.166;5.004;2023-03-05T07:50:24;101991.84;;;6.69;67.23
71384;BME280;67558;52.166;5.004;2023-03-05T07:52:49;101998.53;;;6.79;67.15
71384;BME280;67558;52.166;5.004;2023-03-05T07:55:14;101986.47;;;6.83;67.05
71384;BME280;67558;52.166;5.004;2023-03-05T07:57:40;101987.66;;;6.93;67.15
71384;BME280;67558;52.166;5.004;2023-03-05T08:00:06;101992.28;;;7.05;66.88
71384;BME280;67558;52.166;5.004;2023-03-05T08:02:31;101992.84;;;7.13;66.90
71384;BME280;67558;52.166;5.004;2023-03-05T08:04:57;101991.00;;;7.21;66.53
71384;BME280;67558;52.166;5.004;2023-03-05T08:07:22;101978.66;;;7.26;66.37
71384;BME280;67558;52.166;5.004;2023-03-05T08:09:48;101988.84;;;7.36;66.36
71384;BME280;67558;52.166;5.004;2023-03-05T08:12:13;101973.09;;;7.34;66.59
71384;BME280;67558;52.166;5.004;2023-03-05T08:14:38;101991.63;;;7.48;66.44
71384;BME280;67558;52.166;5.004;2023-03-05T08:17:04;101978.50;;;7.53;66.68
71384;BME280;67558;52.166;5.004;2023-03-05T08:19:31;101979.66;;;7.57;66.22
71384;BME280;67558;52.166;5.004;2023-03-05T08:21:57;101977.78;;;7.64;66.14
71384;BME280;67558;52.166;5.004;2023-03-05T08:24:22;101977.13;;;7.69;66.07
71384;BME280;67558;52.166;5.004;2023-03-05T08:26:56;101975.47;;;7.74;66.20
71384;BME280;67558;52.166;5.004;2023-03-05T08:29:22;101979.09;;;7.80;66.29
71384;BME280;67558;52.166;5.004;2023-03-05T08:31:48;101975.09;;;7.89;65.93
71384;BME280;67558;52.166;5.004;2023-03-05T08:34:14;101971.97;;;7.99;65.68
71384;BME280;67558;52.166;5.004;2023-03-05T08:36:40;101957.16;;;8.03;65.96
71384;BME280;67558;52.166;5.004;2023-03-05T08:39:06;101960.75;;;8.15;65.57
71384;BME280;67558;52.166;5.004;2023-03-05T08:41:34;101958.00;;;8.22;65.24
71384;BME280;67558;52.166;5.004;2023-03-05T08:44:00;101950.38;;;8.26;65.36
71384;BME280;67558;52.166;5.004;2023-03-05T08:46:25;101951.13;;;8.33;64.77
71384;BME280;67558;52.166;5.004;2023-03-05T08:48:51;101951.72;;;8.35;65.24
71384;BME280;67558;52.166;5.004;2023-03-05T08:51:19;101944.31;;;8.37;64.98
71384;BME280;67558;52.166;5.004;2023-03-05T08:53:46;101946.53;;;8.40;64.58
71384;BME280;67558;52.166;5.004;2023-03-05T08:56:13;101937.94;;;8.38;64.65
71384;BME280;67558;52.166;5.004;2023-03-05T08:58:38;101942.47;;;8.37;64.17
71384;BME280;67558;52.166;5.004;2023-03-05T09:01:05;101944.91;;;8.39;64.47
71384;BME280;67558;52.166;5.004;2023-03-05T09:03:31;101932.00;;;8.36;64.07
71384;BME280;67558;52.166;5.004;2023-03-05T09:06:01;101931.41;;;8.34;63.69
71384;BME280;67558;52.166;5.004;2023-03-05T09:08:28;101922.41;;;8.35;63.81
71384;BME280;67558;52.166;5.004;2023-03-05T09:10:54;101928.03;;;8.45;63.68
71384;BME280;67558;52.166;5.004;2023-03-05T09:13:20;101924.59;;;8.38;63.40
71384;BME280;67558;52.166;5.004;2023-03-05T09:15:53;101931.75;;;8.44;63.24
71384;BME280;67558;52.166;5.004;2023-03-05T09:18:19;101931.88;;;8.49;63.18
71384;BME280;67558;52.166;5.004;2023-03-05T09:20:46;101927.59;;;8.48;63.10
71384;BME280;67558;52.166;5.004;2023-03-05T09:23:11;101927.13;;;8.51;63.13
71384;BME280;67558;52.166;5.004;2023-03-05T09:25:39;101930.19;;;8.55;62.79
71384;BME280;67558;52.166;5.004;2023-03-05T09:28:05;101923.38;;;8.59;62.90
71384;BME280;67558;52.166;5.004;2023-03-05T09:30:31;101928.41;;;8.67;62.79
71384;BME280;67558;52.166;5.004;2023-03-05T09:33:01;101925.84;;;8.72;62.57
71384;BME280;67558;52.166;5.004;2023-03-05T09:35:27;101924.97;;;8.78;62.23
71384;BME280;67558;52.166;5.004;2023-03-05T09:37:52;101926.47;;;8.86;61.94
71384;BME280;67558;52.166;5.004;2023-03-05T09:40:20;101917.44;;;8.87;61.46
71384;BME280;67558;52.166;5.004;2023-03-05T09:43:02;101920.03;;;8.94;61.00
71384;BME280;67558;52.166;5.004;2023-03-05T09:45:39;101932.25;;;9.01;60.97
71384;BME280;67558;52.166;5.004;2023-03-05T09:48:20;101924.56;;;9.05;60.72
71384;BME280;67558;52.166;5.004;2023-03-05T09:51:02;101916.94;;;9.09;60.53
71384;BME280;67558;52.166;5.004;2023-03-05T09:53:36;101920.56;;;9.14;60.07
71384;BME280;67558;52.166;5.004;2023-03-05T09:56:09;101916.28;;;9.25;60.39
71384;BME280;67558;52.166;5.004;2023-03-05T09:58:40;101921.88;;;9.35;60.20
71384;BME280;67558;52.166;5.004;2023-03-05T10:04:18;101912.13;;;9.53;59.75
71384;BME280;67558;52.166;5.004;2023-03-05T10:07:07;101910.28;;;9.65;59.71
71384;BME280;67558;52.166;5.004;2023-03-05T10:09:59;101919.25;;;9.71;59.12
71384;BME280;67558;52.166;5.004;2023-03-05T10:14:53;101899.38;;;9.78;59.02
71384;BME280;67558;52.166;5.004;2023-03-05T10:20:06;101896.56;;;9.97;58.46
71384;BME280;67558;52.166;5.004;2023-03-05T10:23:10;101893.41;;;10.12;58.79
71384;BME280;67558;52.166;5.004;2023-03-05T10:34:53;101875.16;;;10.20;57.06
71384;BME280;67558;52.166;5.004;2023-03-05T10:40:47;101874.72;;;10.00;56.99
71384;BME280;67558;52.166;5.004;2023-03-05T10:43:20;101866.09;;;9.98;56.67
71384;BME280;67558;52.166;5.004;2023-03-05T10:45:51;101864.16;;;9.93;56.75
71384;BME280;67558;52.166;5.004;2023-03-05T10:48:39;101867.53;;;9.89;56.03
71384;BME280;67558;52.166;5.004;2023-03-05T10:51:28;101862.66;;;9.86;56.28
71384;BME280;67558;52.166;5.004;2023-03-05T10:54:00;101863.38;;;9.81;56.28
71384;BME280;67558;52.166;5.004;2023-03-05T10:56:29;101863.81;;;9.78;55.77
71384;BME280;67558;52.166;5.004;2023-03-05T10:58:56;101837.94;;;9.67;55.72
71384;BME280;67558;52.166;5.004;2023-03-05T11:01:25;101850.69;;;9.76;56.24
71384;BME280;67558;52.166;5.004;2023-03-05T11:04:07;101844.53;;;9.76;56.36
71384;BME280;67558;52.166;5.004;2023-03-05T11:06:49;101838.50;;;9.80;56.47
71384;BME280;67558;52.166;5.004;2023-03-05T11:09:30;101835.59;;;9.82;56.37
71384;BME280;67558;52.166;5.004;2023-03-05T11:12:19;101833.72;;;9.82;56.17
71384;BME280;67558;52.166;5.004;2023-03-05T11:17:46;101818.94;;;10.03;55.97
71384;BME280;67558;52.166;5.004;2023-03-05T11:23:14;101810.47;;;10.23;55.22
71384;BME280;67558;52.166;5.004;2023-03-05T11:31:18;101804.06;;;10.36;54.97
71384;BME280;67558;52.166;5.004;2023-03-05T11:34:05;101805.19;;;10.52;54.25
71384;BME280;67558;52.166;5.004;2023-03-05T11:36:40;101795.38;;;10.58;53.91
71384;BME280;67558;52.166;5.004;2023-03-05T11:39:24;101801.84;;;10.62;53.89
71384;BME280;67558;52.166;5.004;2023-03-05T11:44:51;101786.16;;;10.65;53.06
71384;BME280;67558;52.166;5.004;2023-03-05T11:47:49;101782.50;;;10.72;53.03
71384;BME280;67558;52.166;5.004;2023-03-05T11:50:21;101786.47;;;10.69;53.03
71384;BME280;67558;52.166;5.004;2023-03-05T11:55:29;101768.63;;;10.75;52.57
71384;BME280;67558;52.166;5.004;2023-03-05T12:00:44;101760.53;;;10.86;52.38
71384;BME280;67558;52.166;5.004;2023-03-05T12:03:16;101753.63;;;10.91;52.24
71384;BME280;67558;52.166;5.004;2023-03-05T12:05:55;101745.69;;;10.96;51.84
71384;BME280;67558;52.166;5.004;2023-03-05T12:08:31;101741.47;;;11.00;51.11
71384;BME280;67558;52.166;5.004;2023-03-05T12:11:00;101740.09;;;10.97;51.49
71384;BME280;67558;52.166;5.004;2023-03-05T12:13:34;101738.06;;;10.88;51.04
71384;BME280;67558;52.166;5.004;2023-03-05T12:21:40;101711.22;;;10.65;51.23
71384;BME280;67558;52.166;5.004;2023-03-05T12:27:14;101711.78;;;10.68;51.04
71384;BME280;67558;52.166;5.004;2023-03-05T12:29:51;101707.75;;;10.65;50.96
71384;BME280;67558;52.166;5.004;2023-03-05T12:39:58;101690.03;;;10.81;51.08
71384;BME280;67558;52.166;5.004;2023-03-05T12:42:51;101693.63;;;10.86;50.68
71384;BME280;67558;52.166;5.004;2023-03-05T12:50:56;101674.63;;;10.88;49.35
71384;BME280;67558;52.166;5.004;2023-03-05T12:53:22;101671.47;;;10.91;50.05
71384;BME280;67558;52.166;5.004;2023-03-05T12:58:50;101656.03;;;10.98;49.61
71384;BME280;67558;52.166;5.004;2023-03-05T13:01:41;101652.94;;;11.06;49.17
71384;BME280;67558;52.166;5.004;2023-03-05T13:04:39;101646.25;;;11.09;48.33
71384;BME280;67558;52.166;5.004;2023-03-05T13:07:16;101638.56;;;11.13;48.32
71384;BME280;67558;52.166;5.004;2023-03-05T13:09:58;101627.03;;;11.12;48.97
71384;BME280;67558;52.166;5.004;2023-03-05T13:12:26;101627.28;;;11.11;49.31
71384;BME280;67558;52.166;5.004;2023-03-05T13:15:05;101626.16;;;11.06;49.17
71384;BME280;67558;52.166;5.004;2023-03-05T13:20:34;101614.56;;;11.01;49.68
71384;BME280;67558;52.166;5.004;2023-03-05T13:23:24;101613.19;;;10.98;49.77
71384;BME280;67558;52.166;5.004;2023-03-05T13:28:20;101607.28;;;10.96;49.93
71384;BME280;67558;52.166;5.004;2023-03-05T13:30:54;101602.16;;;10.95;49.89
71384;BME280;67558;52.166;5.004;2023-03-05T13:33:33;101602.34;;;10.88;50.03
71384;BME280;67558;52.166;5.004;2023-03-05T13:35:58;101594.75;;;10.80;49.94
71384;BME280;67558;52.166;5.004;2023-03-05T13:38:44;101601.59;;;10.71;49.77
71384;BME280;67558;52.166;5.004;2023-03-05T13:46:11;101593.84;;;10.52;50.22
71384;BME280;67558;52.166;5.004;2023-03-05T13:48:39;101587.34;;;10.48;50.42
71384;BME280;67558;52.166;5.004;2023-03-05T13:51:05;101593.19;;;10.45;50.33
71384;BME280;67558;52.166;5.004;2023-03-05T13:53:32;101594.66;;;10.36;50.58
71384;BME280;67558;52.166;5.004;2023-03-05T13:56:06;101581.78;;;10.33;50.64
71384;BME280;67558;52.166;5.004;2023-03-05T13:58:55;101579.00;;;10.28;50.43
71384;BME280;67558;52.166;5.004;2023-03-05T14:06:29;101568.25;;;10.39;50.85
71384;BME280;67558;52.166;5.004;2023-03-05T14:09:02;101552.66;;;10.36;50.73
71384;BME280;67558;52.166;5.004;2023-03-05T14:11:29;101560.63;;;10.48;50.62
71384;BME280;67558;52.166;5.004;2023-03-05T14:14:15;101561.09;;;10.45;49.96
71384;BME280;67558;52.166;5.004;2023-03-05T14:16:42;101558.22;;;10.52;50.43
71384;BME280;67558;52.166;5.004;2023-03-05T14:19:37;101537.19;;;10.38;49.45
71384;BME280;67558;52.166;5.004;2023-03-05T14:22:04;101546.16;;;10.49;49.89
71384;BME280;67558;52.166;5.004;2023-03-05T14:24:30;101547.00;;;10.50;49.69
71384;BME280;67558;52.166;5.004;2023-03-05T14:26:58;101541.47;;;10.56;49.53